Time;durP1;ratioP1;P1;durP2;ratioP2;P2;SDS_P1;SDS_P2;PMS_P1;PMS_P2;Temp;Humidity;BMP_temperature;BMP_pressure;BME280_temperature;BME280_humidity;BME280_pressure;Samples;Min_cycle;Max_cycle;Signal;HPM_P1;HPM_P2
2023/12/19 00:01:19;;;;;;;27.10;13.35;;;;;;;4.59;100.00;102524.59;5013194;28;20052;-81
2023/12/19 00:03:44;;;;;;;30.40;14.05;;;;;;;4.60;100.00;102525.41;5027684;28;20040;-82
2023/12/19 00:06:10;;;;;;;27.75;13.15;;;;;;;4.59;100.00;102515.81;5011812;28;20033;-82
2023/12/19 00:08:36;;;;;;;26.13;11.70;;;;;;;4.60;100.00;102530.72;5013337;28;20072;-82
2023/12/19 00:11:01;;;;;;;37.25;15.82;;;;;;;4.65;100.00;102522.44;5030134;28;20033;-81
2023/12/19 00:13:26;;;;;;;31.17;14.43;;;;;;;4.65;100.00;102519.78;5029568;28;20484;-81
2023/12/19 00:15:52;;;;;;;33.15;16.15;;;;;;;4.64;100.00;102505.75;5028856;28;20031;-82
2023/12/19 00:18:17;;;;;;;30.40;13.68;;;;;;;4.66;100.00;102506.44;5028891;28;20032;-81
2023/12/19 00:20:42;;;;;;;29.70;13.68;;;;;;;4.67;100.00;102505.50;4996278;28;20568;-81
2023/12/19 00:23:08;;;;;;;24.42;12.30;;;;;;;4.68;100.00;102499.25;5027904;28;20053;-82
2023/12/19 00:25:33;;;;;;;31.42;15.38;;;;;;;4.68;100.00;102493.97;5030719;28;20040;-82
2023/12/19 00:27:59;;;;;;;27.45;12.40;;;;;;;4.68;100.00;102490.50;5029550;28;20030;-81
2023/12/19 00:30:26;;;;;;;27.58;12.88;;;;;;;4.67;100.00;102475.59;4995781;28;20040;-82
2023/12/19 00:32:51;;;;;;;28.17;14.35;;;;;;;4.69;100.00;102477.16;5017760;28;20075;-82
2023/12/19 00:35:17;;;;;;;30.08;14.25;;;;;;;4.68;100.00;102458.78;5017629;28;20048;-81
2023/12/19 00:37:42;;;;;;;32.90;14.20;;;;;;;4.71;100.00;102469.94;5017509;28;20129;-82
2023/12/19 00:40:11;;;;;;;28.98;13.57;;;;;;;4.73;100.00;102456.63;5018578;28;20030;-82
2023/12/19 00:42:36;;;;;;;33.42;19.38;;;;;;;4.74;100.00;102453.88;5017673;28;20048;-82
2023/12/19 00:45:02;;;;;;;25.48;12.95;;;;;;;4.72;100.00;102458.44;5017550;28;20034;-82
2023/12/19 00:47:27;;;;;;;25.10;11.93;;;;;;;4.75;100.00;102450.25;5019056;28;20030;-81
2023/12/19 00:49:52;;;;;;;28.35;12.07;;;;;;;4.77;100.00;102453.63;5018702;28;20027;-82
2023/12/19 00:52:18;;;;;;;26.05;13.38;;;;;;;4.77;100.00;102439.56;5019126;28;20538;-81
2023/12/19 00:54:43;;;;;;;28.40;14.13;;;;;;;4.76;100.00;102438.72;5018315;28;20052;-82
2023/12/19 00:57:08;;;;;;;31.13;14.13;;;;;;;4.79;100.00;102425.28;5019481;28;20739;-82
2023/12/19 00:59:34;;;;;;;29.80;13.00;;;;;;;4.80;100.00;102428.75;5035664;28;20080;-81
2023/12/19 01:01:59;;;;;;;26.00;12.27;;;;;;;4.77;100.00;102415.78;5017809;28;20363;-81
2023/12/19 01:04:25;;;;;;;27.55;11.73;;;;;;;4.80;100.00;102412.91;5018103;28;20107;-82
2023/12/19 01:06:50;;;;;;;28.13;13.15;;;;;;;4.82;100.00;102421.53;5018223;28;20044;-82
2023/12/19 01:09:15;;;;;;;27.98;13.57;;;;;;;4.81;100.00;102407.47;5018200;28;20068;-81
2023/12/19 01:11:41;;;;;;;33.13;12.57;;;;;;;4.84;100.00;102404.59;5018649;28;20068;-81
2023/12/19 01:14:06;;;;;;;27.15;11.75;;;;;;;4.82;100.00;102400.38;5016503;28;20499;-82
2023/12/19 01:16:32;;;;;;;28.10;11.70;;;;;;;4.83;100.00;102404.72;5019023;28;20061;-81
2023/12/19 01:18:57;;;;;;;28.80;12.82;;;;;;;4.83;100.00;102396.78;5015369;28;20029;-82
2023/12/19 01:21:22;;;;;;;30.70;14.48;;;;;;;4.89;100.00;102395.47;4997090;28;20066;-81
2023/12/19 01:23:48;;;;;;;26.88;12.77;;;;;;;4.90;100.00;102400.66;5010209;28;20091;-81
2023/12/19 01:26:13;;;;;;;31.35;14.30;;;;;;;4.93;100.00;102404.84;5044711;28;20036;-81
2023/12/19 01:28:39;;;;;;;28.77;13.52;;;;;;;4.92;100.00;102401.34;5045749;28;20477;-81
2023/12/19 01:31:05;;;;;;;31.38;15.18;;;;;;;4.90;100.00;102390.06;5040875;28;20444;-81
2023/12/19 01:33:30;;;;;;;25.83;12.80;;;;;;;4.91;100.00;102394.38;5042065;28;20036;-81
2023/12/19 01:35:55;;;;;;;28.73;11.40;;;;;;;4.87;100.00;102377.06;5040287;28;20140;-81
2023/12/19 01:38:21;;;;;;;30.75;12.52;;;;;;;4.97;100.00;102387.75;5040718;28;20044;-81
2023/12/19 01:40:46;;;;;;;28.15;12.52;;;;;;;4.96;100.00;102384.28;5041648;28;20536;-81
2023/12/19 01:43:19;;;;;;;36.78;15.30;;;;;;;4.93;100.00;102381.06;5040385;28;20429;-82
2023/12/19 01:45:45;;;;;;;30.73;13.70;;;;;;;4.97;100.00;102393.88;5042702;28;20480;-81
2023/12/19 01:48:13;;;;;;;28.30;13.15;;;;;;;4.91;100.00;102391.75;5040608;28;20484;-81
2023/12/19 01:50:38;;;;;;;35.17;14.75;;;;;;;4.92;100.00;102390.75;5040270;28;20389;-81
2023/12/19 01:53:04;;;;;;;30.33;13.38;;;;;;;4.95;100.00;102397.63;5041042;28;20043;-81
2023/12/19 01:55:30;;;;;;;29.13;12.45;;;;;;;4.95;100.00;102402.91;5032403;28;20095;-81
2023/12/19 01:57:56;;;;;;;30.48;13.57;;;;;;;4.95;100.00;102398.47;5036435;28;20034;-82
2023/12/19 02:00:22;;;;;;;28.73;13.43;;;;;;;4.99;100.00;102399.91;5020772;28;20105;-81
2023/12/19 02:02:51;;;;;;;35.25;15.48;;;;;;;4.94;100.00;102391.50;5039854;28;20132;-81
2023/12/19 02:05:17;;;;;;;36.92;15.98;;;;;;;4.96;100.00;102392.22;5039373;28;20492;-82
2023/12/19 02:07:43;;;;;;;30.88;13.80;;;;;;;4.96;100.00;102386.94;5040073;28;20036;-81
2023/12/19 02:10:09;;;;;;;37.22;14.48;;;;;;;4.94;100.00;102382.72;5041347;28;20026;-81
2023/12/19 02:12:35;;;;;;;32.50;14.48;;;;;;;4.98;100.00;102392.09;5015125;28;20119;-81
2023/12/19 02:15:01;;;;;;;29.83;14.00;;;;;;;4.95;100.00;102381.75;5034483;28;20244;-81
2023/12/19 02:17:26;;;;;;;34.97;14.85;;;;;;;4.96;100.00;102376.34;5040448;28;20033;-82
2023/12/19 02:19:52;;;;;;;30.50;15.70;;;;;;;4.93;100.00;102365.19;5041707;28;20021;-82
2023/12/19 02:22:18;;;;;;;28.27;13.32;;;;;;;4.96;100.00;102375.53;5041603;28;20450;-82
2023/12/19 02:24:44;;;;;;;30.80;15.38;;;;;;;4.92;100.00;102366.13;5041092;28;20035;-82
2023/12/19 02:27:11;;;;;;;30.33;13.52;;;;;;;4.97;100.00;102371.91;5040244;28;20391;-82
2023/12/19 02:29:36;;;;;;;28.35;12.68;;;;;;;4.98;100.00;102363.03;5023520;28;20029;-82
2023/12/19 02:32:02;;;;;;;37.90;14.55;;;;;;;4.95;100.00;102363.25;5040259;28;20136;-82
2023/12/19 02:34:29;;;;;;;32.38;13.85;;;;;;;4.91;100.00;102343.31;5025705;28;20492;-82
2023/12/19 02:36:54;;;;;;;31.17;14.40;;;;;;;4.94;100.00;102351.00;5040267;28;20029;-82
2023/12/19 02:39:19;;;;;;;28.58;12.38;;;;;;;4.95;100.00;102356.19;5025036;28;20036;-82
2023/12/19 02:41:45;;;;;;;31.40;15.35;;;;;;;4.95;100.00;102345.59;5041736;28;20065;-82
2023/12/19 02:44:10;;;;;;;28.15;12.23;;;;;;;4.94;100.00;102338.63;5024497;28;20033;-82
2023/12/19 02:46:36;;;;;;;30.75;13.48;;;;;;;4.97;100.00;102342.81;5023463;28;20107;-83
2023/12/19 02:49:01;;;;;;;28.20;12.45;;;;;;;4.94;100.00;102335.13;5042001;28;20128;-82
2023/12/19 02:51:27;;;;;;;28.92;12.98;;;;;;;4.94;100.00;102328.03;5038985;28;20432;-83
2023/12/19 02:53:54;;;;;;;29.83;11.90;;;;;;;4.93;100.00;102331.66;5040459;28;20025;-83
2023/12/19 02:56:19;;;;;;;29.15;14.27;;;;;;;4.91;100.00;102328.28;5042085;28;20115;-77
2023/12/19 02:58:45;;;;;;;26.08;12.18;;;;;;;4.91;100.00;102307.16;5038243;28;20152;-76
2023/12/19 03:01:10;;;;;;;25.15;10.90;;;;;;;4.89;100.00;102303.78;5036006;28;20026;-77
2023/12/19 03:03:36;;;;;;;32.28;11.98;;;;;;;4.88;100.00;102296.00;5023884;28;20477;-76
2023/12/19 03:06:01;;;;;;;24.95;10.55;;;;;;;4.88;100.00;102296.00;5039212;28;20361;-77
2023/12/19 03:08:27;;;;;;;30.48;13.43;;;;;;;4.85;100.00;102291.78;5038150;28;20471;-77
2023/12/19 03:10:53;;;;;;;24.88;11.70;;;;;;;4.88;100.00;102296.00;5042726;28;20013;-77
2023/12/19 03:13:18;;;;;;;26.08;10.93;;;;;;;4.83;100.00;102286.59;5038889;28;20077;-77
2023/12/19 03:15:43;;;;;;;25.58;12.75;;;;;;;4.87;100.00;102289.84;5019111;28;20033;-77
2023/12/19 03:18:09;;;;;;;28.80;11.73;;;;;;;4.83;100.00;102283.97;5044525;28;20123;-77
2023/12/19 03:20:35;;;;;;;22.15;10.35;;;;;;;4.85;100.00;102281.22;5034895;28;20038;-77
2023/12/19 03:23:01;;;;;;;27.38;11.15;;;;;;;4.87;100.00;102273.13;5028649;28;20052;-77
2023/12/19 03:25:27;;;;;;;23.35;9.15;;;;;;;4.87;100.00;102257.28;5037656;28;20033;-77
2023/12/19 03:27:53;;;;;;;24.13;10.52;;;;;;;4.86;100.00;102264.38;5022474;28;20085;-77
2023/12/19 03:30:18;;;;;;;23.80;10.68;;;;;;;4.81;100.00;102248.88;5039630;28;20045;-77
2023/12/19 03:32:43;;;;;;;20.52;9.52;;;;;;;4.84;100.00;102261.84;5041864;28;20048;-77
2023/12/19 03:35:11;;;;;;;20.75;9.35;;;;;;;4.84;100.00;102240.69;5037017;28;20484;-77
2023/12/19 03:37:37;;;;;;;22.83;10.85;;;;;;;4.90;100.00;102242.03;5021196;28;20029;-77
2023/12/19 03:40:02;;;;;;;27.45;12.00;;;;;;;4.86;100.00;102224.72;5035820;28;20021;-77
2023/12/19 03:42:28;;;;;;;22.23;10.75;;;;;;;4.86;100.00;102215.97;5023627;28;20519;-77
2023/12/19 03:44:53;;;;;;;22.88;9.70;;;;;;;4.91;100.00;102230.47;5040911;28;20033;-77
2023/12/19 03:47:18;;;;;;;26.88;11.23;;;;;;;4.87;100.00;102213.19;5047591;28;20085;-77
2023/12/19 03:49:44;;;;;;;25.33;12.00;;;;;;;4.92;100.00;102210.16;5023996;28;20025;-77
2023/12/19 03:52:09;;;;;;;26.27;11.35;;;;;;;4.88;100.00;102204.31;5045089;28;20051;-77
2023/12/19 03:54:35;;;;;;;24.13;8.93;;;;;;;4.92;100.00;102203.06;5041069;28;20028;-77
2023/12/19 03:57:00;;;;;;;26.50;10.65;;;;;;;4.91;100.00;102204.03;5040599;28;20041;-77
2023/12/19 03:59:25;;;;;;;25.00;10.98;;;;;;;4.93;100.00;102204.75;5033084;28;20029;-77
2023/12/19 04:01:51;;;;;;;26.02;12.13;;;;;;;4.97;100.00;102202.69;5018855;28;20037;-77
2023/12/19 04:04:17;;;;;;;21.75;8.55;;;;;;;4.98;100.00;102199.94;5006022;28;20071;-81
2023/12/19 04:06:43;;;;;;;22.20;10.15;;;;;;;4.98;100.00;102201.75;5039135;28;20059;-82
2023/12/19 04:09:10;;;;;;;24.25;11.45;;;;;;;4.93;100.00;102188.91;5038513;28;20021;-81
2023/12/19 04:11:35;;;;;;;21.27;8.10;;;;;;;4.96;100.00;102195.75;5037932;28;20037;-81
2023/12/19 04:14:01;;;;;;;21.27;10.85;;;;;;;4.97;100.00;102192.13;5040613;28;20116;-82
2023/12/19 04:16:27;;;;;;;20.70;8.63;;;;;;;5.02;100.00;102205.81;5021550;28;20033;-82
2023/12/19 04:18:52;;;;;;;22.98;10.68;;;;;;;5.01;100.00;102193.56;5022108;28;20033;-82
2023/12/19 04:21:18;;;;;;;23.13;9.80;;;;;;;5.04;100.00;102178.28;5022666;28;20025;-82
2023/12/19 04:23:43;;;;;;;24.23;10.32;;;;;;;5.04;100.00;102183.56;5039106;28;20037;-82
2023/12/19 04:26:08;;;;;;;27.67;13.95;;;;;;;5.05;100.00;102171.16;5039916;28;20120;-81
2023/12/19 04:28:33;;;;;;;30.15;12.63;;;;;;;5.06;100.00;102164.94;5039133;28;20091;-81
2023/12/19 04:30:59;;;;;;;25.00;11.10;;;;;;;5.04;100.00;102151.00;5039385;28;20053;-82
2023/12/19 04:33:24;;;;;;;29.98;13.02;;;;;;;5.08;100.00;102152.41;5039026;28;20040;-81
2023/12/19 04:35:49;;;;;;;29.63;16.42;;;;;;;5.13;100.00;102130.88;5022626;28;20036;-81
2023/12/19 04:38:15;;;;;;;28.90;12.38;;;;;;;5.11;100.00;102133.66;5021318;28;20481;-81
2023/12/19 04:40:40;;;;;;;30.77;14.85;;;;;;;5.14;100.00;102119.34;5038628;28;20120;-81
2023/12/19 04:43:06;;;;;;;50.75;14.90;;;;;;;5.20;100.00;102132.03;5030270;28;20061;-81
2023/12/19 04:45:31;;;;;;;29.90;14.73;;;;;;;5.24;100.00;102129.00;5031517;28;20506;-81
2023/12/19 04:47:56;;;;;;;29.73;14.95;;;;;;;5.22;100.00;102117.72;5038039;28;20503;-81
2023/12/19 04:50:22;;;;;;;33.67;14.70;;;;;;;5.26;100.00;102127.03;5030768;28;20036;-81
2023/12/19 04:52:47;;;;;;;31.30;16.50;;;;;;;5.27;100.00;102128.75;5020128;28;20030;-81
2023/12/19 04:55:12;;;;;;;37.05;15.23;;;;;;;5.27;100.00;102118.16;5039102;28;20044;-81
2023/12/19 04:57:38;;;;;;;31.73;14.38;;;;;;;5.28;100.00;102119.81;5038235;28;20503;-81
2023/12/19 05:00:04;;;;;;;34.28;17.20;;;;;;;5.28;100.00;102101.31;5039923;28;20408;-81
2023/12/19 05:02:30;;;;;;;33.30;15.38;;;;;;;5.35;100.00;102103.44;5034540;28;20045;-81
2023/12/19 05:04:55;;;;;;;30.75;14.48;;;;;;;5.38;100.00;102100.53;5033548;28;20036;-82
2023/12/19 05:07:21;;;;;;;29.42;16.45;;;;;;;5.37;100.00;102097.06;5035058;28;20055;-81
2023/12/19 05:09:46;;;;;;;32.53;16.75;;;;;;;5.39;100.00;102103.03;5037431;28;20052;-81
2023/12/19 05:12:11;;;;;;;38.25;16.88;;;;;;;5.40;100.00;102101.25;5022074;28;20034;-81
2023/12/19 05:14:37;;;;;;;30.05;14.50;;;;;;;5.41;100.00;102103.75;5022346;28;20044;-82
2023/12/19 05:17:03;;;;;;;30.92;15.02;;;;;;;5.45;100.00;102097.22;5037618;28;20111;-81
2023/12/19 05:19:29;;;;;;;30.73;14.25;;;;;;;5.48;100.00;102098.78;5035227;28;20029;-81
2023/12/19 05:21:55;;;;;;;29.52;16.10;;;;;;;5.45;100.00;102085.81;5022719;28;20044;-81
2023/12/19 05:24:20;;;;;;;28.83;14.73;;;;;;;5.44;100.00;102081.47;5031934;28;20033;-82
2023/12/19 05:26:46;;;;;;;30.98;16.73;;;;;;;5.52;100.00;102100.16;5029847;28;20121;-81
2023/12/19 05:29:11;;;;;;;29.13;13.50;;;;;;;5.51;100.00;102087.09;5023082;28;20083;-81
2023/12/19 05:31:36;;;;;;;31.55;14.70;;;;;;;5.54;100.00;102098.22;5036364;28;20412;-81
2023/12/19 05:34:02;;;;;;;27.55;14.30;;;;;;;5.55;100.00;102102.53;5039762;28;20037;-82
2023/12/19 05:36:27;;;;;;;34.95;13.70;;;;;;;5.53;100.00;102088.63;5033532;28;20033;-82
2023/12/19 05:38:53;;;;;;;40.50;16.48;;;;;;;5.58;100.00;102090.84;5030084;28;20124;-82
2023/12/19 05:41:18;;;;;;;28.83;12.68;;;;;;;5.60;100.00;102079.16;5032597;28;20100;-82
2023/12/19 05:43:43;;;;;;;33.22;14.82;;;;;;;5.63;100.00;102081.56;5003637;28;20033;-82
2023/12/19 05:46:09;;;;;;;34.50;15.73;;;;;;;5.56;100.00;102072.47;5035960;28;20139;-82
2023/12/19 05:48:35;;;;;;;30.90;14.45;;;;;;;5.60;100.00;102092.41;5040179;28;20033;-83
2023/12/19 05:51:00;;;;;;;33.30;16.95;;;;;;;5.64;100.00;102090.34;5039290;28;20081;-82
2023/12/19 05:53:27;;;;;;;38.47;15.80;;;;;;;5.61;100.00;102077.38;5037837;28;20086;-82
2023/12/19 05:55:52;;;;;;;31.65;15.27;;;;;;;5.64;100.00;102085.88;5031254;28;20108;-82
2023/12/19 05:58:18;;;;;;;29.70;14.18;;;;;;;5.63;100.00;102071.00;5028029;28;20113;-82
2023/12/19 06:00:48;;;;;;;28.85;13.82;;;;;;;5.65;100.00;102069.00;5034628;28;20072;-82
2023/12/19 06:03:13;;;;;;;30.23;14.98;;;;;;;5.65;100.00;102061.06;5038492;28;20368;-82
2023/12/19 06:05:39;;;;;;;28.80;15.05;;;;;;;5.67;100.00;102037.13;5036012;28;20112;-82
2023/12/19 06:08:07;;;;;;;33.40;14.95;;;;;;;5.67;100.00;102040.63;5022409;28;20026;-82
2023/12/19 06:10:33;;;;;;;34.03;13.50;;;;;;;5.70;100.00;102040.34;5033665;28;20025;-82
2023/12/19 06:13:00;;;;;;;28.90;14.63;;;;;;;5.72;100.00;102046.34;5037628;28;20037;-82
2023/12/19 06:15:25;;;;;;;27.90;12.70;;;;;;;5.71;100.00;102039.38;5040803;28;20384;-83
2023/12/19 06:17:50;;;;;;;28.83;13.43;;;;;;;5.74;100.00;102046.22;5042906;28;20028;-83
2023/12/19 06:20:16;;;;;;;30.75;13.73;;;;;;;5.74;100.00;102040.06;5033367;28;20028;-82
2023/12/19 06:22:41;;;;;;;30.00;12.65;;;;;;;5.78;100.00;102049.41;5032357;28;20029;-83
2023/12/19 06:25:07;;;;;;;34.88;14.20;;;;;;;5.81;100.00;102049.97;5039031;28;20033;-83
2023/12/19 06:27:35;;;;;;;31.67;16.05;;;;;;;5.83;100.00;102052.50;5043154;28;20112;-82
2023/12/19 06:30:05;;;;;;;26.83;13.55;;;;;;;5.83;100.00;102033.97;5043277;28;20053;-82
2023/12/19 06:32:31;;;;;;;27.88;13.25;;;;;;;5.84;100.00;102030.34;5036416;28;20393;-82
2023/12/19 06:34:57;;;;;;;30.10;14.30;;;;;;;5.83;100.00;102050.69;5038842;28;20033;-83
2023/12/19 06:37:22;;;;;;;34.13;15.70;;;;;;;5.83;100.00;102039.25;5023774;28;20053;-82
2023/12/19 06:39:47;;;;;;;31.33;12.23;;;;;;;5.85;100.00;102045.25;5038481;28;20122;-82
2023/12/19 06:42:13;;;;;;;29.02;14.00;;;;;;;5.87;100.00;102049.44;5035444;28;20026;-82
2023/12/19 06:44:38;;;;;;;29.20;12.27;;;;;;;5.85;100.00;102035.50;5042949;28;20034;-82
2023/12/19 06:47:04;;;;;;;29.30;14.27;;;;;;;5.88;100.00;102029.09;5038534;28;20036;-83
2023/12/19 06:49:29;;;;;;;28.00;14.02;;;;;;;5.92;100.00;102023.41;5019542;28;20086;-82
2023/12/19 06:51:54;;;;;;;27.00;12.32;;;;;;;5.87;100.00;102019.50;5038545;28;20036;-82
2023/12/19 06:54:20;;;;;;;30.65;14.63;;;;;;;5.95;100.00;102034.69;5040645;28;20040;-82
2023/12/19 06:56:45;;;;;;;50.30;15.80;;;;;;;5.96;100.00;102031.94;5038606;28;20053;-82
2023/12/19 06:59:11;;;;;;;30.73;13.60;;;;;;;5.96;100.00;102031.94;5004894;28;20111;-82
2023/12/19 07:01:36;;;;;;;35.65;14.18;;;;;;;5.93;100.00;102021.59;5039996;28;20065;-82
2023/12/19 07:04:03;;;;;;;26.83;12.57;;;;;;;5.93;100.00;102019.81;5040096;28;20037;-82
2023/12/19 07:06:29;;;;;;;30.08;13.60;;;;;;;5.96;100.00;102016.03;5039671;28;20032;-83
2023/12/19 07:08:55;;;;;;;28.30;13.45;;;;;;;6.00;100.00;102017.47;5013223;28;20036;-82
2023/12/19 07:11:21;;;;;;;26.67;13.65;;;;;;;5.98;100.00;102006.16;5036117;28;20136;-83
2023/12/19 07:13:46;;;;;;;30.70;14.80;;;;;;;6.00;100.00;102025.41;5015864;28;20124;-82
2023/12/19 07:16:18;;;;;;;25.88;12.60;;;;;;;6.03;100.00;102019.00;5022639;28;20037;-82
2023/12/19 07:18:47;;;;;;;;;;;;;;;6.10;100.00;102020.09;5040291;28;20783;-82
2023/12/19 07:21:22;;;;;;;25.63;14.10;;;;;;;6.06;100.00;102018.72;5040525;28;19959;-82
2023/12/19 07:23:51;;;;;;;28.23;13.60;;;;;;;6.07;100.00;102023.03;5039362;28;20517;-82
2023/12/19 07:26:27;;;;;;;25.27;12.15;;;;;;;6.07;100.00;102004.47;5038991;28;20025;-82
2023/12/19 07:28:54;;;;;;;30.80;14.20;;;;;;;6.03;100.00;102003.09;5039138;28;20033;-82
2023/12/19 07:31:33;;;;;;;28.80;12.73;;;;;;;6.08;100.00;102008.81;5038752;28;20048;-83
2023/12/19 07:34:03;;;;;;;23.88;11.52;;;;;;;6.11;100.00;102004.06;5039029;28;20049;-83
2023/12/19 07:36:30;;;;;;;23.25;10.68;;;;;;;6.11;100.00;101996.13;5040084;28;20029;-83
2023/12/19 07:38:56;;;;;;;25.27;12.38;;;;;;;6.13;100.00;102010.06;5023331;28;20108;-83
2023/12/19 07:41:23;;;;;;;25.27;12.45;;;;;;;6.14;100.00;102017.03;5039298;28;20130;-83
2023/12/19 07:43:49;;;;;;;28.65;14.77;;;;;;;6.15;100.00;102009.91;5038701;28;20028;-84
2023/12/19 07:46:14;;;;;;;22.88;12.02;;;;;;;6.18;100.00;102016.75;5040192;28;20017;-84
2023/12/19 07:48:40;;;;;;;23.15;11.63;;;;;;;6.18;100.00;102019.41;5039218;28;20037;-84
2023/12/19 07:51:06;;;;;;;27.40;12.90;;;;;;;6.17;100.00;102012.44;5039575;28;20029;-83
2023/12/19 07:53:32;;;;;;;28.25;13.75;;;;;;;6.21;100.00;102021.75;5038607;28;20108;-83
2023/12/19 07:56:00;;;;;;;22.63;11.30;;;;;;;6.25;100.00;102012.56;5035489;28;20428;-83
2023/12/19 07:58:25;;;;;;;23.30;11.57;;;;;;;6.27;100.00;102013.28;5037510;28;20031;-84
2023/12/19 08:00:51;;;;;;;24.95;12.52;;;;;;;6.22;100.00;101983.72;5039052;28;20021;-84
2023/12/19 08:03:16;;;;;;;23.40;11.02;;;;;;;6.22;100.00;101986.38;5039615;28;20048;-84
2023/12/19 08:05:52;;;;;;;20.73;10.60;;;;;;;6.27;100.00;101998.22;5038295;28;20033;-84
2023/12/19 08:08:20;;;;;;;25.40;10.80;;;;;;;6.30;100.00;101986.50;5022431;28;20384;-83
2023/12/19 08:10:46;;;;;;;23.35;10.93;;;;;;;6.30;100.00;101989.16;5020791;28;20473;-83
2023/12/19 08:13:14;;;;;;;20.92;10.00;;;;;;;6.28;100.00;101985.81;5037773;28;20037;-84
2023/12/19 08:15:42;;;;;;;23.33;10.77;;;;;;;6.33;100.00;101986.22;5021795;28;20064;-83
2023/12/19 08:18:09;;;;;;;22.88;11.23;;;;;;;6.32;100.00;101972.13;5038633;28;20067;-84
2023/12/19 08:20:35;;;;;;;23.80;11.70;;;;;;;6.30;100.00;101973.25;5038521;28;20026;-83
2023/12/19 08:23:01;;;;;;;19.90;9.98;;;;;;;6.29;100.00;101975.06;5038591;28;20048;-84
2023/12/19 08:25:26;;;;;;;22.25;10.88;;;;;;;6.28;100.00;101983.97;5022274;28;20025;-84
2023/12/19 08:27:51;;;;;;;17.75;9.68;;;;;;;6.27;100.00;101989.44;5037732;28;20971;-83
2023/12/19 08:30:17;;;;;;;21.20;11.18;;;;;;;6.25;100.00;101983.44;5037645;28;20552;-80
2023/12/19 08:32:42;;;;;;;21.90;10.38;;;;;;;6.24;100.00;101968.53;5023889;28;20029;-79
2023/12/19 08:35:08;;;;;;;22.05;10.60;;;;;;;6.20;100.00;101970.59;5032076;28;20116;-80
2023/12/19 08:37:34;;;;;;;21.10;10.70;;;;;;;6.21;100.00;101976.72;5041598;28;20029;-81
2023/12/19 08:40:02;;;;;;;18.85;8.82;;;;;;;6.18;100.00;101974.38;5037532;28;20033;-79
2023/12/19 08:42:28;;;;;;;21.02;10.80;;;;;;;6.15;100.00;101968.38;5035587;28;20041;-79
2023/12/19 08:44:55;;;;;;;23.42;9.80;;;;;;;6.07;100.00;101962.94;5036328;28;20028;-78
2023/12/19 08:47:21;;;;;;;22.02;10.60;;;;;;;6.09;100.00;101968.94;5020422;28;20034;-80
2023/12/19 08:49:46;;;;;;;25.52;10.55;;;;;;;6.09;100.00;101962.81;5031610;28;20079;-80
2023/12/19 08:52:13;;;;;;;26.08;9.95;;;;;;;6.03;100.00;101950.13;5038334;28;20029;-81
2023/12/19 08:54:38;;;;;;;19.83;9.00;;;;;;;6.07;100.00;101964.75;5037511;28;20034;-80
2023/12/19 08:57:04;;;;;;;21.40;8.80;;;;;;;6.05;100.00;101962.25;5038699;28;20022;-81
2023/12/19 08:59:31;;;;;;;20.95;10.48;;;;;;;6.01;100.00;101955.56;5037427;28;20025;-80
2023/12/19 09:01:57;;;;;;;20.10;8.27;;;;;;;6.04;100.00;101951.81;5020368;28;20047;-81
2023/12/19 09:04:22;;;;;;;20.20;9.02;;;;;;;6.01;100.00;101946.78;5037350;28;20025;-80
2023/12/19 09:06:48;;;;;;;22.15;10.38;;;;;;;6.00;100.00;101934.50;5036125;28;20030;-77
2023/12/19 09:09:14;;;;;;;19.25;10.85;;;;;;;6.04;100.00;101939.38;5018247;28;20350;-78
2023/12/19 09:11:40;;;;;;;17.85;8.40;;;;;;;6.02;100.00;101946.63;5035320;28;20100;-78
2023/12/19 09:14:06;;;;;;;21.70;8.88;;;;;;;6.05;100.00;101943.72;5043369;28;20190;-76
2023/12/19 09:16:32;;;;;;;20.30;9.57;;;;;;;6.03;100.00;101948.31;5035031;28;20025;-77
2023/12/19 09:18:59;;;;;;;23.15;10.23;;;;;;;6.01;100.00;101937.03;5026984;28;20107;-77
2023/12/19 09:21:26;;;;;;;20.92;9.88;;;;;;;5.96;100.00;101923.38;5042262;28;20511;-77
2023/12/19 09:23:51;;;;;;;19.88;9.18;;;;;;;5.99;100.00;101923.09;5019683;28;20061;-77
2023/12/19 09:26:17;;;;;;;21.23;9.73;;;;;;;5.95;100.00;101915.56;5017098;28;20495;-76
2023/12/19 09:28:42;;;;;;;19.00;8.57;;;;;;;6.00;100.00;101926.56;4997779;28;20053;-77
2023/12/19 09:31:08;;;;;;;16.63;7.93;;;;;;;6.03;100.00;101919.19;5017268;28;20106;-76
2023/12/19 09:33:37;;;;;;;18.50;8.60;;;;;;;6.02;100.00;101922.78;5037205;28;20037;-77
2023/12/19 09:36:09;;;;;;;19.50;8.20;;;;;;;5.99;100.00;101924.91;5027651;28;20108;-77
2023/12/19 09:38:36;;;;;;;20.83;8.57;;;;;;;6.04;100.00;101922.66;5005776;28;20045;-78
2023/12/19 09:41:03;;;;;;;20.98;8.63;;;;;;;6.04;100.00;101914.72;5023543;28;20104;-77
2023/12/19 09:43:32;;;;;;;20.55;10.55;;;;;;;6.03;100.00;101921.00;5038312;28;20080;-77
2023/12/19 09:46:07;;;;;;;18.83;8.27;;;;;;;6.02;100.00;101928.09;5047856;28;20028;-76
2023/12/19 09:48:35;;;;;;;17.00;6.90;;;;;;;6.03;100.00;101915.72;5038803;28;20037;-80
2023/12/19 09:51:02;;;;;;;16.85;7.68;;;;;;;6.03;100.00;101907.78;5038416;28;20037;-79
2023/12/19 09:53:33;;;;;;;17.48;7.55;;;;;;;6.00;100.00;101902.72;5039079;28;20591;-78
2023/12/19 09:56:01;;;;;;;16.52;6.82;;;;;;;6.05;100.00;101904.00;5038433;28;20076;-79
2023/12/19 09:58:31;;;;;;;15.65;7.35;;;;;;;6.04;100.00;101907.59;5023242;28;20021;-79
2023/12/19 10:00:59;;;;;;;18.58;7.85;;;;;;;6.02;100.00;101888.38;5037100;28;20043;-77
2023/12/19 10:03:27;;;;;;;14.88;8.40;;;;;;;6.07;100.00;101885.31;5015632;28;20044;-78
2023/12/19 10:05:53;;;;;;;15.18;7.00;;;;;;;6.11;100.00;101884.06;5039440;28;20029;-79
2023/12/19 10:08:19;;;;;;;16.45;6.60;;;;;;;6.08;100.00;101887.81;5035176;28;20112;-78
2023/12/19 10:10:51;;;;;;;12.68;6.72;;;;;;;6.15;100.00;101885.44;5013010;28;20049;-76
2023/12/19 10:13:33;;;;;;;15.48;6.18;;;;;;;6.17;100.00;101883.47;5015440;28;20033;-76
2023/12/19 10:16:02;;;;;;;13.75;5.90;;;;;;;6.19;100.00;101876.22;5034508;28;20025;-78
2023/12/19 10:18:27;;;;;;;17.15;6.07;;;;;;;6.21;100.00;101869.00;5037817;28;20476;-78
2023/12/19 10:21:21;;;;;;;13.50;5.93;;;;;;;6.23;100.00;101876.78;5037717;28;20032;-80
2023/12/19 10:23:46;;;;;;;13.27;5.45;;;;;;;6.24;100.00;101859.91;5034537;28;20053;-77
2023/12/19 10:26:12;;;;;;;13.13;5.15;;;;;;;6.25;100.00;101861.56;5036780;28;20036;-79
2023/12/19 10:28:38;;;;;;;12.27;5.63;;;;;;;6.27;100.00;101857.81;5024944;28;20123;-80
2023/12/19 10:31:06;;;;;;;11.85;5.60;;;;;;;6.29;100.00;101865.63;5038826;28;20052;-79
2023/12/19 10:33:46;;;;;;;14.40;6.25;;;;;;;6.28;100.00;101870.06;5022142;28;20183;-78
2023/12/19 10:36:25;;;;;;;13.63;6.35;;;;;;;6.23;100.00;101842.34;5037594;28;20029;-78
2023/12/19 10:38:52;;;;;;;13.45;5.70;;;;;;;6.29;100.00;101837.31;5041035;28;20495;-79
2023/12/19 10:41:19;;;;;;;9.00;5.15;;;;;;;6.34;100.00;101829.78;5041943;28;20175;-78
2023/12/19 10:43:46;;;;;;;13.63;5.93;;;;;;;6.37;100.00;101839.25;5038940;28;20041;-78
2023/12/19 10:46:14;;;;;;;12.45;6.03;;;;;;;6.38;100.00;101824.19;5037804;28;20036;-81
2023/12/19 10:48:39;;;;;;;10.70;5.15;;;;;;;6.33;100.00;101814.84;5020759;28;20033;-78
2023/12/19 10:51:08;;;;;;;10.57;4.95;;;;;;;6.35;100.00;101804.09;5034810;28;20427;-78
2023/12/19 10:53:35;;;;;;;13.02;5.70;;;;;;;6.35;100.00;101823.47;5020475;28;20021;-79
2023/12/19 10:56:07;;;;;;;12.80;5.15;;;;;;;6.30;100.00;101809.00;5038571;28;20090;-78
2023/12/19 10:58:39;;;;;;;17.20;7.43;;;;;;;6.33;100.00;101806.06;5032629;28;20064;-79
2023/12/19 11:01:07;;;;;;;;;;;;;;;6.35;100.00;101796.16;5019336;28;20013;-78
2023/12/19 11:03:39;;;;;;;11.02;5.38;;;;;;;6.32;100.00;101785.84;5016764;28;19924;-79
2023/12/19 11:06:09;;;;;;;13.23;6.20;;;;;;;6.36;100.00;101784.56;5042235;28;20464;-78
2023/12/19 11:08:39;;;;;;;13.48;5.97;;;;;;;6.34;100.00;101763.53;5035489;28;20021;-80